Eldorado, Iowa
Current Conditions -  °F | °C
As of 12:15 PM on Friday 28 Nov 2014 (Local Time) from KDEH Reporting Station
Clear Clear  
Wind Chill: 14°   Ceiling: Unl
Heat Index: 23°   Visibility: 10mi
Dew Point: 18°   Wind: 8mph
Humidity: 80%   Direction: 160°SSE
Pressure: 29.92"   Gusts: NA
Location:  43.0026°N, 91.7836°W
Report Text: KDEH 281815Z AUTO 16007KT 10SM CLR M05/M08 A2992 RMK AO2
Loading
Personal Weather Stations






























Interactive Weather Map New forecast layout! Learn more

10-Day Weather Forecast

Advertisements
Track Severe Weather on mobile